createdAt,value
2023-05-23T00:01:48.346Z,12.85
2023-05-23T00:04:18.694Z,12.48
2023-05-23T00:06:47.424Z,12.65
2023-05-23T00:09:14.761Z,13.20
2023-05-23T00:11:45.675Z,13.52
2023-05-23T00:14:13.608Z,13.85
2023-05-23T00:16:44.473Z,14.50
2023-05-23T00:19:11.976Z,14.40
2023-05-23T00:21:39.377Z,14.70
2023-05-23T00:24:06.574Z,17.50
2023-05-23T00:26:34.704Z,18.13
2023-05-23T00:29:02.182Z,17.98
2023-05-23T00:31:29.492Z,18.23
2023-05-23T00:33:57.687Z,18.70
2023-05-23T00:36:24.769Z,19.30
2023-05-23T00:38:53.202Z,18.60
2023-05-23T00:41:21.340Z,18.67
2023-05-23T00:43:48.757Z,19.90
2023-05-23T00:46:17.032Z,19.20
2023-05-23T00:48:43.940Z,19.07
2023-05-23T00:51:12.482Z,18.60
2023-05-23T00:53:39.367Z,19.43
2023-05-23T00:56:06.888Z,18.50
2023-05-23T00:58:33.747Z,17.30
2023-05-23T01:01:01.073Z,17.83
2023-05-23T01:03:28.777Z,19.20
2023-05-23T01:05:56.509Z,20.17
2023-05-23T01:08:24.733Z,21.13
2023-05-23T01:10:52.253Z,22.30
2023-05-23T01:13:26.786Z,24.83
2023-05-23T01:16:01.931Z,28.17
2023-05-23T01:18:38.207Z,27.63
2023-05-23T01:21:09.825Z,28.23
2023-05-23T01:24:03.945Z,28.93
2023-05-23T01:26:45.994Z,28.87
2023-05-23T01:29:22.538Z,28.17
2023-05-23T01:31:52.709Z,30.03
2023-05-23T01:34:20.867Z,29.40
2023-05-23T01:36:51.069Z,29.27
2023-05-23T01:39:17.898Z,29.23
2023-05-23T01:41:45.065Z,30.13
2023-05-23T01:44:14.683Z,28.90
2023-05-23T01:46:41.856Z,30.07
2023-05-23T01:49:11.603Z,29.77
2023-05-23T01:51:39.574Z,30.03
2023-05-23T01:54:07.079Z,28.03
2023-05-23T01:56:35.221Z,26.90
2023-05-23T01:59:02.868Z,28.00
2023-05-23T02:01:31.926Z,27.93
2023-05-23T02:03:58.940Z,27.13
2023-05-23T02:06:26.210Z,27.57
2023-05-23T02:08:53.181Z,26.00
2023-05-23T02:11:20.370Z,25.77
2023-05-23T02:13:47.164Z,25.00
2023-05-23T02:16:14.158Z,24.80
2023-05-23T02:18:42.327Z,25.40
2023-05-23T02:21:09.610Z,25.53
2023-05-23T02:23:36.443Z,25.53
2023-05-23T02:26:03.921Z,25.23
2023-05-23T02:28:30.842Z,26.63
2023-05-23T02:30:58.286Z,27.27
2023-05-23T02:33:25.121Z,26.90
2023-05-23T02:35:55.566Z,31.00
2023-05-23T02:38:22.362Z,36.20
2023-05-23T02:40:51.697Z,37.47
2023-05-23T02:43:18.543Z,46.10
2023-05-23T02:45:45.980Z,50.27
2023-05-23T02:48:12.928Z,57.27
2023-05-23T02:50:40.230Z,55.07
2023-05-23T02:53:08.368Z,59.53
2023-05-23T02:55:35.555Z,59.23
2023-05-23T02:58:05.856Z,62.00
2023-05-23T03:00:33.183Z,65.33
2023-05-23T03:03:00.038Z,63.37
2023-05-23T03:05:27.406Z,59.40
2023-05-23T03:07:54.761Z,64.93
2023-05-23T03:10:23.634Z,70.23
2023-05-23T03:12:50.619Z,64.03
2023-05-23T03:15:18.140Z,59.10
2023-05-23T03:17:45.276Z,56.83
2023-05-23T03:20:12.744Z,57.00
2023-05-23T03:22:40.068Z,53.37
2023-05-23T03:25:08.221Z,49.30
2023-05-23T03:27:36.628Z,45.83
2023-05-23T03:30:04.985Z,40.43
2023-05-23T03:32:32.208Z,39.70
2023-05-23T03:34:59.556Z,37.03
2023-05-23T03:37:26.503Z,35.60
2023-05-23T03:39:54.044Z,31.50
2023-05-23T03:42:21.199Z,31.63
2023-05-23T03:44:49.872Z,30.50
2023-05-23T03:47:16.976Z,29.13
2023-05-23T03:49:45.580Z,28.17
2023-05-23T03:52:12.610Z,27.97
2023-05-23T03:54:39.914Z,27.43
2023-05-23T03:57:07.039Z,27.77
2023-05-23T03:59:35.238Z,26.90
2023-05-23T04:02:03.625Z,25.40
2023-05-23T04:04:31.500Z,26.23
2023-05-23T04:06:59.032Z,25.53
2023-05-23T04:09:26.289Z,26.27
2023-05-23T04:11:53.337Z,25.03
2023-05-23T04:14:22.891Z,24.13
2023-05-23T04:16:49.905Z,22.93
2023-05-23T04:19:18.308Z,22.63
2023-05-23T04:21:45.315Z,23.00
2023-05-23T04:24:12.540Z,24.40
2023-05-23T04:26:39.431Z,24.20
2023-05-23T04:29:06.679Z,23.40
2023-05-23T04:31:36.326Z,23.83
2023-05-23T04:34:04.166Z,23.20
2023-05-23T04:36:32.437Z,21.90
2023-05-23T04:38:59.636Z,23.20
2023-05-23T04:41:26.498Z,21.53
2023-05-23T04:43:54.878Z,21.70
2023-05-23T04:46:26.185Z,20.03
2023-05-23T04:48:54.308Z,19.40
2023-05-23T04:51:22.027Z,19.23
2023-05-23T04:53:51.270Z,18.77
2023-05-23T04:56:21.979Z,19.40
2023-05-23T04:58:49.302Z,19.23
2023-05-23T05:01:16.566Z,19.47
2023-05-23T05:03:43.494Z,19.53
2023-05-23T05:06:10.938Z,20.70
2023-05-23T05:08:37.836Z,21.97
2023-05-23T05:11:06.287Z,20.57
2023-05-23T05:13:33.204Z,21.10
2023-05-23T05:16:00.367Z,19.67
2023-05-23T05:18:27.391Z,21.50
2023-05-23T05:20:54.605Z,21.00
2023-05-23T05:23:25.852Z,21.20
2023-05-23T05:25:53.121Z,21.87
2023-05-23T05:28:22.149Z,21.00
2023-05-23T05:30:54.030Z,20.50
2023-05-23T05:33:23.980Z,19.50
2023-05-23T05:35:51.520Z,18.07
2023-05-23T05:38:18.498Z,18.10
2023-05-23T05:40:45.537Z,18.07
2023-05-23T05:43:12.824Z,17.57
2023-05-23T05:45:41.446Z,16.53
2023-05-23T05:48:08.445Z,16.70
2023-05-23T05:50:35.522Z,15.73
2023-05-23T05:53:02.454Z,16.37
2023-05-23T05:55:29.815Z,15.13
2023-05-23T05:57:56.858Z,16.47
2023-05-23T06:00:24.472Z,14.40
2023-05-23T06:02:54.930Z,14.63
2023-05-23T06:05:22.454Z,14.50
2023-05-23T06:07:52.440Z,13.63
2023-05-23T06:10:19.838Z,13.73
2023-05-23T06:12:46.764Z,13.77
2023-05-23T06:15:14.930Z,13.93
2023-05-23T06:17:41.929Z,13.70
2023-05-23T06:20:11.792Z,14.50
2023-05-23T06:22:38.827Z,12.90
2023-05-23T06:25:07.788Z,13.17
2023-05-23T06:27:34.656Z,13.27
2023-05-23T06:30:02.929Z,13.50
2023-05-23T06:32:29.859Z,13.80
2023-05-23T06:34:57.123Z,14.27
2023-05-23T06:37:25.374Z,13.13
2023-05-23T06:39:52.559Z,10.93
2023-05-23T06:42:19.405Z,12.70
2023-05-23T06:44:46.276Z,12.90
2023-05-23T06:47:13.093Z,12.70
2023-05-23T06:49:39.928Z,12.73
2023-05-23T06:52:06.806Z,12.50
2023-05-23T06:54:35.073Z,11.57
2023-05-23T06:57:01.922Z,11.77
2023-05-23T06:59:29.110Z,11.63
2023-05-23T07:01:55.969Z,10.80
2023-05-23T07:04:22.857Z,10.10
2023-05-23T07:06:49.996Z,11.07
2023-05-23T07:09:17.229Z,11.20
2023-05-23T07:11:45.375Z,10.70
2023-05-23T07:14:12.405Z,10.40
2023-05-23T07:16:39.322Z,10.73
2023-05-23T07:19:06.237Z,10.97
2023-05-23T07:21:33.085Z,10.17
2023-05-23T07:24:02.903Z,10.90
2023-05-23T07:26:29.717Z,10.97
2023-05-23T07:28:58.900Z,10.27
2023-05-23T07:31:25.955Z,9.47
2023-05-23T07:33:55.765Z,9.57
2023-05-23T07:36:23.577Z,8.97
2023-05-23T07:38:50.433Z,9.40
2023-05-23T07:41:17.288Z,8.67
2023-05-23T07:43:44.585Z,9.83
2023-05-23T07:46:12.801Z,10.13
2023-05-23T07:48:39.993Z,8.97
2023-05-23T07:51:07.087Z,8.77
2023-05-23T07:53:35.269Z,8.83
2023-05-23T07:56:02.109Z,8.33
2023-05-23T07:58:29.215Z,8.30
2023-05-23T08:00:56.146Z,7.80
2023-05-23T08:03:24.932Z,7.90
2023-05-23T08:05:51.795Z,8.13
2023-05-23T08:08:18.937Z,8.10
2023-05-23T08:10:46.101Z,6.83
2023-05-23T08:13:13.655Z,8.67
2023-05-23T08:15:40.549Z,8.53
2023-05-23T08:18:07.755Z,6.23
2023-05-23T08:20:36.582Z,5.70
2023-05-23T08:23:03.508Z,5.60
2023-05-23T08:25:30.922Z,5.27
2023-05-23T08:27:58.977Z,5.97
2023-05-23T08:30:26.126Z,5.07
2023-05-23T08:32:54.028Z,5.00
2023-05-23T08:35:21.492Z,5.93
2023-05-23T08:37:51.130Z,7.27
2023-05-23T08:40:20.795Z,5.60
2023-05-23T08:42:49.080Z,5.57
2023-05-23T08:45:16.893Z,5.90
2023-05-23T08:47:45.319Z,6.10
2023-05-23T08:50:13.324Z,6.33
2023-05-23T08:52:45.020Z,6.77
2023-05-23T08:55:13.419Z,5.80
2023-05-23T08:57:43.766Z,6.37
2023-05-23T09:00:14.973Z,7.23
2023-05-23T09:02:44.042Z,7.00
2023-05-23T09:05:11.662Z,7.70
2023-05-23T09:07:39.648Z,8.17
2023-05-23T09:10:08.717Z,7.60
2023-05-23T09:12:38.189Z,8.63
2023-05-23T09:15:05.769Z,9.73
2023-05-23T09:17:36.241Z,9.17
2023-05-23T09:20:05.235Z,9.70
2023-05-23T09:22:32.406Z,10.03
2023-05-23T09:25:00.302Z,10.17
2023-05-23T09:27:28.198Z,10.03
2023-05-23T09:29:56.820Z,9.53
2023-05-23T09:32:24.095Z,10.00
2023-05-23T09:34:57.185Z,9.50
2023-05-23T09:37:29.856Z,9.63
2023-05-23T09:39:57.165Z,9.17
2023-05-23T09:42:24.397Z,9.17
2023-05-23T09:44:51.346Z,8.40
2023-05-23T09:47:20.383Z,8.20
2023-05-23T09:49:48.106Z,7.23
2023-05-23T09:52:15.357Z,8.53
2023-05-23T09:54:43.808Z,7.57
2023-05-23T09:57:11.825Z,7.63
2023-05-23T09:59:41.459Z,8.80
2023-05-23T10:02:11.821Z,9.80
2023-05-23T10:04:41.638Z,9.80
2023-05-23T10:07:15.285Z,11.43
2023-05-23T10:09:45.359Z,10.87
2023-05-23T10:12:48.191Z,9.97
2023-05-23T10:15:17.101Z,9.67
2023-05-23T10:18:02.621Z,10.13
2023-05-23T10:20:33.376Z,10.20
2023-05-23T10:23:01.585Z,9.30
2023-05-23T10:25:29.349Z,10.10
2023-05-23T10:28:01.633Z,9.10
2023-05-23T10:30:30.608Z,10.47
2023-05-23T10:32:58.924Z,10.13
2023-05-23T10:35:39.487Z,10.53
2023-05-23T10:38:13.929Z,10.63
2023-05-23T10:40:51.578Z,12.40
2023-05-23T10:43:25.259Z,12.67
2023-05-23T10:45:52.921Z,13.07
2023-05-23T10:48:32.827Z,12.53
2023-05-23T10:51:06.323Z,12.07
2023-05-23T10:53:36.138Z,11.73
2023-05-23T10:56:06.333Z,12.53
2023-05-23T10:58:33.997Z,11.03
2023-05-23T11:01:05.636Z,11.00
2023-05-23T11:03:37.928Z,10.97
2023-05-23T11:06:07.103Z,9.30
2023-05-23T11:08:47.018Z,9.43
2023-05-23T11:11:15.428Z,9.23
2023-05-23T11:13:57.566Z,8.17
2023-05-23T11:16:25.563Z,8.00
2023-05-23T11:18:52.792Z,8.23
2023-05-23T11:21:22.093Z,8.10
2023-05-23T11:23:54.811Z,8.23
2023-05-23T11:26:32.454Z,8.70
2023-05-23T11:29:00.158Z,8.13
2023-05-23T11:31:27.951Z,8.27
2023-05-23T11:33:55.222Z,7.63
2023-05-23T11:36:23.953Z,7.97
2023-05-23T11:38:52.678Z,8.03
2023-05-23T11:41:19.568Z,8.20
2023-05-23T11:43:51.027Z,7.80
2023-05-23T11:46:18.168Z,8.27
2023-05-23T11:48:46.214Z,7.43
2023-05-23T11:51:13.537Z,7.13
2023-05-23T11:53:42.184Z,7.17
2023-05-23T11:56:09.328Z,6.13
2023-05-23T11:58:38.091Z,5.73
2023-05-23T12:01:09.284Z,5.97
2023-05-23T12:03:46.603Z,5.50
2023-05-23T12:06:15.869Z,5.80
2023-05-23T12:08:44.621Z,5.23
2023-05-23T12:11:11.896Z,6.00
2023-05-23T12:13:42.415Z,7.07
2023-05-23T12:16:09.612Z,6.83
2023-05-23T12:18:38.432Z,7.10
2023-05-23T12:21:10.796Z,7.50
2023-05-23T12:23:39.576Z,6.83
2023-05-23T12:26:08.226Z,7.07
2023-05-23T12:28:37.292Z,6.53
2023-05-23T12:31:16.183Z,6.57
2023-05-23T12:33:44.661Z,6.00
2023-05-23T12:36:11.760Z,7.60
2023-05-23T12:38:41.132Z,7.07
2023-05-23T12:41:10.904Z,6.63
2023-05-23T12:43:41.749Z,7.00
2023-05-23T12:46:08.745Z,6.87
2023-05-23T12:48:36.093Z,7.00
2023-05-23T12:51:04.132Z,7.40
2023-05-23T12:53:31.416Z,6.57
2023-05-23T12:55:58.328Z,7.07
2023-05-23T12:58:28.489Z,7.60
2023-05-23T13:00:56.634Z,6.70
2023-05-23T13:03:23.846Z,6.57
2023-05-23T13:05:50.983Z,7.20
2023-05-23T13:08:19.456Z,6.60
2023-05-23T13:10:46.517Z,7.10
2023-05-23T13:13:13.969Z,6.80
2023-05-23T13:15:42.642Z,6.67
2023-05-23T13:18:10.019Z,6.50
2023-05-23T13:20:37.579Z,6.53
2023-05-23T13:23:05.809Z,5.70
2023-05-23T13:25:32.630Z,4.57
2023-05-23T13:28:01.703Z,4.97
2023-05-23T13:30:29.071Z,4.20
2023-05-23T13:32:57.797Z,3.97
2023-05-23T13:35:24.742Z,3.73
2023-05-23T13:37:52.332Z,3.93
2023-05-23T13:40:21.094Z,4.13
2023-05-23T13:42:51.060Z,4.40
2023-05-23T13:45:18.572Z,4.27
2023-05-23T13:47:46.931Z,4.60
2023-05-23T13:50:17.954Z,5.10
2023-05-23T13:52:48.919Z,5.07
2023-05-23T13:55:17.342Z,4.30
2023-05-23T13:57:44.728Z,4.50
2023-05-23T14:00:12.773Z,4.03
2023-05-23T14:02:40.098Z,4.60
2023-05-23T14:05:08.224Z,4.70
2023-05-23T14:07:37.062Z,4.33
2023-05-23T14:10:05.160Z,4.57
2023-05-23T14:12:32.449Z,4.17
2023-05-23T14:14:59.463Z,4.30
2023-05-23T14:17:26.749Z,4.73
2023-05-23T14:19:53.699Z,4.23
2023-05-23T14:22:20.961Z,4.67
2023-05-23T14:24:49.233Z,5.07
2023-05-23T14:27:16.645Z,4.47
2023-05-23T14:29:46.585Z,3.83
2023-05-23T14:32:13.996Z,4.43
2023-05-23T14:34:40.919Z,4.57
2023-05-23T14:37:08.254Z,3.80
2023-05-23T14:39:35.929Z,4.60
2023-05-23T14:42:05.416Z,4.37
2023-05-23T14:44:32.524Z,4.40
2023-05-23T14:47:00.245Z,4.63
2023-05-23T14:49:27.133Z,4.60
2023-05-23T14:51:54.326Z,4.30
2023-05-23T14:54:21.425Z,4.60
2023-05-23T14:56:51.170Z,3.78
2023-05-23T14:59:21.797Z,3.80
2023-05-23T15:01:49.323Z,4.47
2023-05-23T15:04:16.515Z,4.87
2023-05-23T15:06:43.787Z,4.65
2023-05-23T15:09:10.785Z,4.67
2023-05-23T15:11:42.766Z,4.20
2023-05-23T15:14:09.646Z,4.28
2023-05-23T15:16:39.610Z,4.80
2023-05-23T15:19:07.059Z,4.07
2023-05-23T15:21:34.365Z,4.60
2023-05-23T15:24:01.393Z,4.68
2023-05-23T15:26:28.812Z,4.53
2023-05-23T15:28:56.187Z,4.88
2023-05-23T15:31:23.501Z,4.35
2023-05-23T15:33:51.852Z,4.70
2023-05-23T15:36:19.106Z,4.80
2023-05-23T15:38:46.011Z,4.35
2023-05-23T15:41:13.286Z,4.93
2023-05-23T15:43:40.263Z,5.05
2023-05-23T15:46:07.532Z,4.63
2023-05-23T15:48:34.416Z,4.50
2023-05-23T15:51:03.154Z,4.07
2023-05-23T15:53:34.315Z,4.78
2023-05-23T15:56:04.503Z,3.65
2023-05-23T15:58:32.349Z,4.30
2023-05-23T16:00:59.600Z,5.03
2023-05-23T16:03:26.554Z,4.20
2023-05-23T16:05:53.763Z,5.03
2023-05-23T16:08:22.104Z,4.40
2023-05-23T16:10:49.426Z,3.90
2023-05-23T16:13:17.959Z,4.63
2023-05-23T16:15:45.345Z,4.20
2023-05-23T16:18:12.240Z,4.23
2023-05-23T16:20:39.641Z,4.23
2023-05-23T16:23:06.567Z,4.57
2023-05-23T16:25:35.342Z,4.23
2023-05-23T16:28:02.498Z,4.60
2023-05-23T16:30:30.039Z,4.20
2023-05-23T16:32:57.033Z,3.97
2023-05-23T16:35:24.462Z,3.97
2023-05-23T16:37:51.590Z,3.92
2023-05-23T16:40:19.808Z,3.97
2023-05-23T16:42:48.166Z,3.35
2023-05-23T16:45:15.424Z,3.80
2023-05-23T16:47:42.357Z,4.15
2023-05-23T16:50:10.592Z,3.83
2023-05-23T16:52:39.465Z,3.57
2023-05-23T16:55:07.585Z,4.37
2023-05-23T16:57:34.575Z,3.73
2023-05-23T17:00:07.918Z,3.30
2023-05-23T17:02:35.155Z,3.70
2023-05-23T17:05:02.574Z,3.87
2023-05-23T17:07:30.677Z,4.13
2023-05-23T17:09:57.927Z,3.90
2023-05-23T17:12:26.424Z,4.67
2023-05-23T17:14:53.784Z,4.40
2023-05-23T17:17:21.969Z,5.07
2023-05-23T17:19:49.225Z,3.50
2023-05-23T17:22:16.210Z,4.33
2023-05-23T17:24:43.368Z,4.50
2023-05-23T17:27:10.549Z,4.20
2023-05-23T17:29:37.791Z,4.73
2023-05-23T17:32:05.254Z,4.57
2023-05-23T17:34:33.967Z,4.73
2023-05-23T17:37:01.017Z,3.63
2023-05-23T17:39:28.302Z,4.07
2023-05-23T17:41:55.332Z,3.20
2023-05-23T17:44:22.538Z,3.93
2023-05-23T17:46:49.375Z,3.93
2023-05-23T17:49:16.394Z,4.20
2023-05-23T17:51:44.609Z,4.73
2023-05-23T17:54:11.531Z,3.30
2023-05-23T17:56:38.401Z,3.90
2023-05-23T17:59:06.114Z,3.87
2023-05-23T18:01:34.226Z,3.20
2023-05-23T18:04:02.254Z,3.90
2023-05-23T18:06:29.195Z,3.20
2023-05-23T18:08:57.821Z,2.97
2023-05-23T18:11:25.796Z,4.27
2023-05-23T18:13:53.859Z,3.47
2023-05-23T18:16:21.432Z,3.90
2023-05-23T18:18:48.837Z,3.80
2023-05-23T18:21:18.011Z,3.37
2023-05-23T18:23:45.343Z,3.87
2023-05-23T18:26:13.562Z,3.37
2023-05-23T18:28:40.760Z,3.20
2023-05-23T18:31:07.648Z,4.23
2023-05-23T18:33:34.776Z,3.13
2023-05-23T18:36:02.129Z,3.30
2023-05-23T18:38:29.541Z,3.97
2023-05-23T18:40:56.452Z,4.20
2023-05-23T18:43:25.031Z,3.73
2023-05-23T18:45:51.894Z,4.20
2023-05-23T18:48:18.792Z,3.63
2023-05-23T18:50:45.816Z,3.10
2023-05-23T18:53:13.162Z,3.43
2023-05-23T18:55:39.991Z,4.07
2023-05-23T18:58:07.025Z,3.83
2023-05-23T19:00:36.071Z,3.87
2023-05-23T19:03:03.053Z,4.03
2023-05-23T19:05:30.332Z,3.60
2023-05-23T19:07:57.237Z,3.33
2023-05-23T19:10:24.413Z,3.80
2023-05-23T19:12:51.861Z,3.87
2023-05-23T19:15:19.355Z,3.73
2023-05-23T19:17:48.191Z,3.70
2023-05-23T19:20:18.446Z,3.53
2023-05-23T19:25:17.267Z,3.77
2023-05-23T19:27:44.193Z,3.43
2023-05-23T19:30:11.999Z,4.00
2023-05-23T19:32:38.995Z,4.27
2023-05-23T19:35:08.676Z,3.90
2023-05-23T19:37:35.628Z,4.90
2023-05-23T19:40:02.545Z,4.37
2023-05-23T19:42:29.563Z,4.20
2023-05-23T19:44:57.076Z,4.00
2023-05-23T19:47:24.067Z,4.27
2023-05-23T19:49:51.203Z,3.53
2023-05-23T19:52:19.497Z,3.73
2023-05-23T19:54:46.668Z,4.40
2023-05-23T19:57:13.523Z,3.73
2023-05-23T19:59:40.660Z,4.37
2023-05-23T20:02:07.535Z,3.73
2023-05-23T20:04:34.370Z,4.20
2023-05-23T20:07:01.341Z,3.33
2023-05-23T20:09:29.838Z,3.63
2023-05-23T20:11:56.840Z,3.40
2023-05-23T20:14:23.765Z,4.00
2023-05-23T20:16:53.905Z,3.90
2023-05-23T20:19:20.813Z,4.00
2023-05-23T20:21:47.759Z,5.07
2023-05-23T20:24:15.296Z,4.30
2023-05-23T20:26:43.438Z,4.43
2023-05-23T20:29:11.111Z,3.63
2023-05-23T20:31:38.136Z,3.57
2023-05-23T20:34:05.326Z,3.83
2023-05-23T20:36:33.157Z,3.73
2023-05-23T20:39:00.545Z,3.80
2023-05-23T20:41:29.644Z,3.97
2023-05-23T20:44:03.115Z,3.43
2023-05-23T20:46:33.579Z,3.60
2023-05-23T20:49:01.443Z,4.17
2023-05-23T20:51:28.366Z,3.83
2023-05-23T20:53:55.499Z,3.70
2023-05-23T20:56:22.539Z,4.20
2023-05-23T20:58:49.760Z,3.73
2023-05-23T21:01:18.021Z,4.03
2023-05-23T21:03:45.262Z,3.37
2023-05-23T21:06:12.101Z,3.37
2023-05-23T21:08:39.256Z,4.00
2023-05-23T21:11:06.096Z,4.07
2023-05-23T21:13:33.054Z,3.60
2023-05-23T21:15:59.861Z,3.43
2023-05-23T21:18:28.324Z,3.70
2023-05-23T21:20:55.153Z,3.70
2023-05-23T21:23:22.166Z,3.90
2023-05-23T21:25:49.034Z,3.40
2023-05-23T21:28:16.244Z,4.00
2023-05-23T21:30:43.679Z,3.40
2023-05-23T21:33:11.479Z,3.80
2023-05-23T21:35:39.939Z,4.07
2023-05-23T21:38:06.912Z,3.97
2023-05-23T21:40:33.798Z,4.40
2023-05-23T21:43:00.992Z,3.60
2023-05-23T21:45:27.894Z,3.70
2023-05-23T21:47:54.835Z,4.30
2023-05-23T21:50:22.079Z,3.87
2023-05-23T21:52:50.291Z,3.63
2023-05-23T21:55:17.607Z,3.30
2023-05-23T21:57:44.509Z,3.43
2023-05-23T22:00:12.941Z,4.40
2023-05-23T22:02:39.955Z,3.70
2023-05-23T22:05:07.810Z,3.97
2023-05-23T22:07:34.668Z,3.90
2023-05-23T22:10:03.355Z,3.97
2023-05-23T22:12:31.180Z,4.17
2023-05-23T22:14:58.762Z,3.70
2023-05-23T22:17:26.417Z,4.13
2023-05-23T22:19:53.993Z,3.57
2023-05-23T22:22:20.902Z,3.73
2023-05-23T22:24:48.193Z,4.67
2023-05-23T22:27:16.472Z,4.13
2023-05-23T22:29:43.820Z,4.23
2023-05-23T22:32:10.845Z,5.50
2023-05-23T22:34:38.859Z,4.20
2023-05-23T22:37:05.802Z,4.27
2023-05-23T22:39:33.104Z,3.93
2023-05-23T22:42:00.414Z,3.93
2023-05-23T22:44:28.673Z,3.90
2023-05-23T22:46:58.187Z,4.10
2023-05-23T22:49:30.328Z,4.20
2023-05-23T22:51:58.015Z,3.67
2023-05-23T22:54:25.068Z,4.20
2023-05-23T22:56:53.244Z,4.00
2023-05-23T22:59:20.420Z,4.50
2023-05-23T23:01:48.965Z,5.10
2023-05-23T23:04:15.848Z,4.33
2023-05-23T23:06:43.298Z,3.60
2023-05-23T23:09:10.328Z,4.70
2023-05-23T23:11:37.619Z,3.90
2023-05-23T23:14:04.540Z,4.10
2023-05-23T23:16:32.381Z,4.43
2023-05-23T23:19:02.509Z,4.67
2023-05-23T23:21:29.461Z,3.73
2023-05-23T23:23:56.620Z,4.17
2023-05-23T23:26:23.850Z,4.30
2023-05-23T23:28:51.388Z,4.60
2023-05-23T23:31:18.405Z,4.57
2023-05-23T23:33:46.213Z,4.30
2023-05-23T23:36:14.448Z,5.20
2023-05-23T23:38:41.774Z,4.03
2023-05-23T23:41:08.727Z,5.50
2023-05-23T23:43:35.959Z,4.50
2023-05-23T23:46:02.813Z,4.83
2023-05-23T23:48:29.942Z,4.67
2023-05-23T23:50:56.973Z,4.10
2023-05-23T23:53:25.608Z,3.97
2023-05-23T23:55:52.526Z,4.67
2023-05-23T23:58:20.034Z,5.13
